createdAt,value
2022-12-01T00:01:43.447Z,0.20
2022-12-01T00:04:10.072Z,0.10
2022-12-01T00:06:36.610Z,0.10
2022-12-01T00:09:21.387Z,0.05
2022-12-01T00:11:48.284Z,0.10
2022-12-01T00:14:16.189Z,0.22
2022-12-01T00:16:44.458Z,0.05
2022-12-01T00:19:10.915Z,0.17
2022-12-01T00:21:37.141Z,0.20
2022-12-01T00:24:03.563Z,0.28
2022-12-01T00:26:29.852Z,0.17
2022-12-01T00:28:57.461Z,0.20
2022-12-01T00:31:24.234Z,0.13
2022-12-01T00:33:50.725Z,0.17
2022-12-01T00:36:17.327Z,0.10
2022-12-01T00:38:43.705Z,0.20
2022-12-01T00:41:09.957Z,0.22
2022-12-01T00:43:36.342Z,0.10
2022-12-01T00:46:02.670Z,0.10
2022-12-01T00:48:29.055Z,0.10
2022-12-01T00:50:55.646Z,0.20
2022-12-01T00:53:22.023Z,0.25
2022-12-01T00:55:48.275Z,0.15
2022-12-01T00:58:14.514Z,0.10
2022-12-01T01:00:42.599Z,0.20
2022-12-01T01:03:08.838Z,0.10
2022-12-01T01:05:36.034Z,0.20
2022-12-01T01:08:02.390Z,0.13
2022-12-01T01:10:28.662Z,0.20
2022-12-01T01:12:54.885Z,0.40
2022-12-01T01:15:21.582Z,0.10
2022-12-01T01:17:47.886Z,0.17
2022-12-01T01:20:14.136Z,0.20
2022-12-01T01:22:40.364Z,0.30
2022-12-01T01:25:06.876Z,0.00
2022-12-01T01:27:34.047Z,0.10
2022-12-01T01:30:00.332Z,0.20
2022-12-01T01:32:26.586Z,0.08
2022-12-01T01:34:52.806Z,0.20
2022-12-01T01:37:19.219Z,0.10
2022-12-01T01:39:45.739Z,0.10
2022-12-01T01:42:14.933Z,0.20
2022-12-01T01:45:01.495Z,0.10
2022-12-01T01:47:32.788Z,0.10
2022-12-01T01:50:05.209Z,0.08
2022-12-01T01:52:32.069Z,0.00
2022-12-01T01:54:58.449Z,0.20
2022-12-01T01:57:29.472Z,0.20
2022-12-01T01:59:59.011Z,0.20
2022-12-01T02:02:25.663Z,0.10
2022-12-01T02:04:55.771Z,0.10
2022-12-01T02:07:22.251Z,0.20
2022-12-01T02:09:48.703Z,0.10
2022-12-01T02:12:25.986Z,0.15
2022-12-01T02:15:07.616Z,0.17
2022-12-01T02:17:57.302Z,0.20
2022-12-01T02:20:35.920Z,0.22
2022-12-01T02:23:28.470Z,0.30
2022-12-01T02:26:23.029Z,0.30
2022-12-01T02:29:04.261Z,0.10
2022-12-01T02:31:49.149Z,0.30
2022-12-01T02:34:38.490Z,0.13
2022-12-01T02:37:28.195Z,0.10
2022-12-01T02:39:57.989Z,0.20
2022-12-01T02:42:50.461Z,0.22
2022-12-01T02:45:22.461Z,0.22
2022-12-01T02:47:50.366Z,0.35
2022-12-01T02:50:16.817Z,0.17
2022-12-01T02:52:43.180Z,0.20
2022-12-01T02:55:09.468Z,0.38
2022-12-01T02:57:35.686Z,0.28
2022-12-01T03:00:02.221Z,0.20
2022-12-01T03:02:28.444Z,0.20
2022-12-01T03:05:07.654Z,0.25
2022-12-01T03:07:52.798Z,0.30
2022-12-01T03:10:28.344Z,0.10
2022-12-01T03:13:06.868Z,0.20
2022-12-01T03:15:44.899Z,0.20
2022-12-01T03:18:11.239Z,0.20
2022-12-01T03:20:41.678Z,0.20
2022-12-01T03:23:10.861Z,0.20
2022-12-01T03:25:39.690Z,0.30
2022-12-01T03:28:21.299Z,0.10
2022-12-01T03:30:49.552Z,0.22
2022-12-01T03:33:24.142Z,0.30
2022-12-01T03:35:50.406Z,0.15
2022-12-01T03:38:23.357Z,0.30
2022-12-01T03:40:50.862Z,0.20
2022-12-01T03:43:23.434Z,0.30
2022-12-01T03:45:55.269Z,0.20
2022-12-01T03:48:22.388Z,0.13
2022-12-01T03:51:24.203Z,0.20
2022-12-01T03:53:52.935Z,0.10
2022-12-01T03:56:21.468Z,0.20
2022-12-01T03:58:49.057Z,0.20
2022-12-01T04:01:15.407Z,0.20
2022-12-01T04:03:41.824Z,0.20
2022-12-01T04:06:08.097Z,0.20
2022-12-01T04:08:36.851Z,0.17
2022-12-01T04:11:25.223Z,0.20
2022-12-01T04:13:54.525Z,0.22
2022-12-01T04:16:20.812Z,0.20
2022-12-01T04:18:47.046Z,0.20
2022-12-01T04:21:13.265Z,0.30
2022-12-01T04:23:58.243Z,0.13
2022-12-01T04:26:24.509Z,0.10
2022-12-01T04:28:50.710Z,0.28
2022-12-01T04:31:17.042Z,0.10
2022-12-01T04:33:43.288Z,0.20
2022-12-01T04:36:09.743Z,0.30
2022-12-01T04:38:38.983Z,0.30
2022-12-01T04:41:09.315Z,0.20
2022-12-01T04:43:36.041Z,0.20
2022-12-01T04:46:02.480Z,0.10
2022-12-01T04:48:28.710Z,0.00
2022-12-01T04:50:54.937Z,0.20
2022-12-01T04:53:21.243Z,0.13
2022-12-01T04:55:47.538Z,0.20
2022-12-01T04:58:13.830Z,0.30
2022-12-01T05:00:40.182Z,0.20
2022-12-01T05:03:09.648Z,0.20
2022-12-01T05:05:39.919Z,0.20
2022-12-01T05:08:06.178Z,0.20
2022-12-01T05:10:34.635Z,0.15
2022-12-01T05:13:01.262Z,0.20
2022-12-01T05:15:27.553Z,0.20
2022-12-01T05:17:53.869Z,0.20
2022-12-01T05:20:39.939Z,0.30
2022-12-01T05:23:06.780Z,0.20
2022-12-01T05:25:34.198Z,0.30
2022-12-01T05:28:00.785Z,0.30
2022-12-01T05:30:28.706Z,0.28
2022-12-01T05:32:58.197Z,0.30
2022-12-01T05:35:24.417Z,0.30
2022-12-01T05:37:50.701Z,0.30
2022-12-01T05:40:16.989Z,0.28
2022-12-01T05:42:43.260Z,0.20
2022-12-01T05:45:09.738Z,0.13
2022-12-01T05:47:36.033Z,0.22
2022-12-01T05:50:05.755Z,0.30
2022-12-01T05:52:33.520Z,0.30
2022-12-01T05:54:59.761Z,0.40
2022-12-01T05:57:26.085Z,0.30
2022-12-01T05:59:52.374Z,0.45
2022-12-01T06:02:18.867Z,0.20
2022-12-01T06:04:45.186Z,0.30
2022-12-01T06:07:11.401Z,0.30
2022-12-01T06:09:37.677Z,0.20
2022-12-01T06:12:03.970Z,0.30
2022-12-01T06:14:30.193Z,0.43
2022-12-01T06:16:56.453Z,0.20
2022-12-01T06:19:22.758Z,0.38
2022-12-01T06:21:49.098Z,0.30
2022-12-01T06:24:15.395Z,0.30
2022-12-01T06:26:41.651Z,0.30
2022-12-01T06:29:09.309Z,0.25
2022-12-01T06:31:35.569Z,0.30
2022-12-01T06:34:01.854Z,0.40
2022-12-01T06:36:28.092Z,0.70
2022-12-01T06:38:54.349Z,0.38
2022-12-01T06:41:20.637Z,0.40
2022-12-01T06:43:46.889Z,0.38
2022-12-01T06:46:13.257Z,0.30
2022-12-01T06:48:39.641Z,0.43
2022-12-01T06:51:05.987Z,0.50
2022-12-01T06:53:32.215Z,0.50
2022-12-01T06:56:01.699Z,0.35
2022-12-01T06:58:28.339Z,0.50
2022-12-01T07:00:54.938Z,0.50
2022-12-01T07:03:21.205Z,0.30
2022-12-01T07:05:54.833Z,0.60
2022-12-01T07:08:21.113Z,0.50
2022-12-01T07:10:55.793Z,0.60
2022-12-01T07:13:22.009Z,0.60
2022-12-01T07:15:48.284Z,0.52
2022-12-01T07:18:14.561Z,0.40
2022-12-01T07:20:40.850Z,0.40
2022-12-01T07:23:07.077Z,0.50
2022-12-01T07:25:33.289Z,0.43
2022-12-01T07:27:59.565Z,0.60
2022-12-01T07:30:28.619Z,0.40
2022-12-01T07:32:55.014Z,0.30
2022-12-01T07:35:21.735Z,0.50
2022-12-01T07:37:48.097Z,0.50
2022-12-01T07:40:14.616Z,0.50
2022-12-01T07:42:41.722Z,0.43
2022-12-01T07:45:08.175Z,0.40
2022-12-01T07:47:34.450Z,0.55
2022-12-01T07:50:00.702Z,0.47
2022-12-01T07:52:26.981Z,0.60
2022-12-01T07:54:53.202Z,0.50
2022-12-01T07:57:20.441Z,0.50
2022-12-01T07:59:46.770Z,0.70
2022-12-01T08:02:13.540Z,0.50
2022-12-01T08:04:39.936Z,0.70
2022-12-01T08:07:06.231Z,0.50
2022-12-01T08:09:32.502Z,0.45
2022-12-01T08:11:58.766Z,0.70
2022-12-01T08:14:25.058Z,0.57
2022-12-01T08:16:51.498Z,0.38
2022-12-01T08:19:17.878Z,0.50
2022-12-01T08:21:44.109Z,0.50
2022-12-01T08:24:10.606Z,0.50
2022-12-01T08:26:36.830Z,0.60
2022-12-01T08:29:03.161Z,0.60
2022-12-01T08:31:31.413Z,0.75
2022-12-01T08:33:57.986Z,0.65
2022-12-01T08:36:25.149Z,0.50
2022-12-01T08:38:52.946Z,0.60
2022-12-01T08:41:19.629Z,0.65
2022-12-01T08:44:01.826Z,0.40
2022-12-01T08:46:31.046Z,0.60
2022-12-01T08:48:57.636Z,0.50
2022-12-01T08:51:24.337Z,0.60
2022-12-01T08:53:50.859Z,0.70
2022-12-01T08:56:19.160Z,0.60
2022-12-01T08:58:45.486Z,0.40
2022-12-01T09:01:12.834Z,0.57
2022-12-01T09:03:39.498Z,0.65
2022-12-01T09:06:06.900Z,0.40
2022-12-01T09:08:34.918Z,0.40
2022-12-01T09:11:02.589Z,0.60
2022-12-01T09:13:29.571Z,0.40
2022-12-01T09:15:57.192Z,0.38
2022-12-01T09:18:23.560Z,0.30
2022-12-01T09:20:49.852Z,0.30
2022-12-01T09:23:16.119Z,0.40
2022-12-01T09:25:42.400Z,0.43
2022-12-01T09:28:08.677Z,0.20
2022-12-01T09:30:35.545Z,0.30
2022-12-01T09:33:01.938Z,0.40
2022-12-01T09:35:30.342Z,0.30
2022-12-01T09:37:57.185Z,0.40
2022-12-01T09:40:25.786Z,0.47
2022-12-01T09:42:52.112Z,0.38
2022-12-01T09:45:24.888Z,0.38
2022-12-01T09:47:53.340Z,0.30
2022-12-01T09:50:23.945Z,0.73
2022-12-01T09:52:51.723Z,0.32
2022-12-01T09:55:19.263Z,0.38
2022-12-01T09:57:49.925Z,0.38
2022-12-01T10:00:18.096Z,0.30
2022-12-01T10:02:50.465Z,0.43
2022-12-01T10:07:45.754Z,0.30
2022-12-01T10:10:14.290Z,0.40
2022-12-01T10:12:42.056Z,0.40
2022-12-01T10:15:08.368Z,0.43
2022-12-01T10:17:43.574Z,0.40
2022-12-01T10:20:16.534Z,0.50
2022-12-01T10:22:42.762Z,0.30
2022-12-01T10:25:12.265Z,0.50
2022-12-01T10:27:55.757Z,0.40
2022-12-01T10:30:23.671Z,0.40
2022-12-01T10:32:53.104Z,0.20
2022-12-01T10:35:21.670Z,0.28
2022-12-01T10:37:50.081Z,0.25
2022-12-01T10:40:16.708Z,0.20
2022-12-01T10:42:44.309Z,0.30
2022-12-01T10:45:22.547Z,0.20
2022-12-01T10:48:07.827Z,0.30
2022-12-01T10:50:34.330Z,0.30
2022-12-01T10:53:00.546Z,0.30
2022-12-01T10:55:28.205Z,0.30
2022-12-01T10:57:55.771Z,0.30
2022-12-01T11:00:59.086Z,0.28
2022-12-01T11:03:28.656Z,0.22
2022-12-01T11:05:58.045Z,0.20
2022-12-01T11:08:41.443Z,0.40
2022-12-01T11:11:23.130Z,0.30
2022-12-01T11:13:49.565Z,0.80
2022-12-01T11:16:33.772Z,0.30
2022-12-01T11:19:25.331Z,0.28
2022-12-01T11:21:54.706Z,0.20
2022-12-01T11:24:26.781Z,0.30
2022-12-01T11:26:53.101Z,0.20
2022-12-01T11:29:27.731Z,0.30
2022-12-01T11:31:54.113Z,0.20
2022-12-01T11:34:22.227Z,0.22
2022-12-01T11:36:50.296Z,0.30
2022-12-01T11:39:26.144Z,0.10
2022-12-01T11:41:56.866Z,0.13
2022-12-01T11:44:43.538Z,0.10
2022-12-01T11:47:22.717Z,0.20
2022-12-01T11:49:57.484Z,0.10
2022-12-01T11:52:27.295Z,0.15
2022-12-01T11:54:57.657Z,0.10
2022-12-01T11:57:39.470Z,0.00
2022-12-01T12:00:25.433Z,0.20
2022-12-01T12:03:01.992Z,0.10
2022-12-01T12:05:40.258Z,0.13
2022-12-01T12:08:27.406Z,0.17
2022-12-01T12:11:14.575Z,0.20
2022-12-01T12:13:43.794Z,0.20
2022-12-01T12:16:16.186Z,0.05
2022-12-01T12:18:49.078Z,0.17
2022-12-01T12:21:32.694Z,0.15
2022-12-01T12:23:58.962Z,0.10
2022-12-01T12:26:27.466Z,0.20
2022-12-01T12:29:16.685Z,0.10
2022-12-01T12:31:51.528Z,0.20
2022-12-01T12:34:23.542Z,0.20
2022-12-01T12:36:59.138Z,0.10
2022-12-01T12:39:44.138Z,0.08
2022-12-01T12:42:46.004Z,0.10
2022-12-01T12:45:20.574Z,0.20
2022-12-01T12:47:46.804Z,0.30
2022-12-01T12:50:29.916Z,0.10
2022-12-01T12:53:06.581Z,0.20
2022-12-01T12:55:36.175Z,0.20
2022-12-01T12:58:20.613Z,0.20
2022-12-01T13:00:59.523Z,0.10
2022-12-01T13:03:44.650Z,0.10
2022-12-01T13:06:34.210Z,0.10
2022-12-01T13:09:08.373Z,0.05
2022-12-01T13:11:57.685Z,0.20
2022-12-01T13:14:35.663Z,0.10
2022-12-01T13:17:07.169Z,0.10
2022-12-01T13:19:39.053Z,0.13
2022-12-01T13:22:07.150Z,0.10
2022-12-01T13:24:33.571Z,0.10
2022-12-01T13:27:04.285Z,0.10
2022-12-01T13:29:34.248Z,0.63
2022-12-01T13:32:00.942Z,0.05
2022-12-01T13:34:32.465Z,0.20
2022-12-01T13:36:58.702Z,0.20
2022-12-01T13:39:29.377Z,0.10
2022-12-01T13:42:00.184Z,0.10
2022-12-01T13:44:28.542Z,0.20
2022-12-01T13:47:03.635Z,0.10
2022-12-01T13:49:33.551Z,0.10
2022-12-01T13:52:18.168Z,0.13
2022-12-01T13:54:56.750Z,0.20
2022-12-01T13:57:26.210Z,0.20
2022-12-01T13:59:58.405Z,0.10
2022-12-01T14:02:25.687Z,0.10
2022-12-01T14:04:52.422Z,0.10
2022-12-01T14:07:18.813Z,0.10
2022-12-01T14:09:45.238Z,0.00
2022-12-01T14:12:11.428Z,0.22
2022-12-01T14:14:39.933Z,0.00
2022-12-01T14:17:06.467Z,0.20
2022-12-01T14:19:32.729Z,0.00
2022-12-01T14:21:59.799Z,0.10
2022-12-01T14:24:31.023Z,0.10
2022-12-01T14:26:57.482Z,0.10
2022-12-01T14:29:33.789Z,0.10
2022-12-01T14:32:00.041Z,0.13
2022-12-01T14:34:29.225Z,0.20
2022-12-01T14:36:58.563Z,0.00
2022-12-01T14:39:26.603Z,0.10
2022-12-01T14:41:58.006Z,0.00
2022-12-01T14:44:36.243Z,0.10
2022-12-01T14:47:11.801Z,0.10
2022-12-01T14:49:40.533Z,0.20
2022-12-01T14:52:13.224Z,0.10
2022-12-01T14:54:43.775Z,0.08
2022-12-01T14:57:16.492Z,0.20
2022-12-01T14:59:43.105Z,0.10
2022-12-01T15:02:11.835Z,0.10
2022-12-01T15:04:57.048Z,0.20
2022-12-01T15:07:23.864Z,0.10
2022-12-01T15:09:58.234Z,0.03
2022-12-01T15:12:26.247Z,0.10
2022-12-01T15:14:52.741Z,0.10
2022-12-01T15:17:30.163Z,0.05
2022-12-01T15:19:56.557Z,0.20
2022-12-01T15:22:24.058Z,0.20
2022-12-01T15:24:50.526Z,0.10
2022-12-01T15:27:24.553Z,0.17
2022-12-01T15:29:51.357Z,0.15
2022-12-01T15:32:21.177Z,0.22
2022-12-01T15:34:48.918Z,0.10
2022-12-01T15:37:17.416Z,0.10
2022-12-01T15:39:45.226Z,0.10
2022-12-01T15:42:21.354Z,0.13
2022-12-01T15:45:00.141Z,0.10
2022-12-01T15:47:43.914Z,0.20
2022-12-01T15:50:46.579Z,0.10
2022-12-01T15:53:15.482Z,0.10
2022-12-01T15:55:41.743Z,0.30
2022-12-01T15:58:08.877Z,0.17
2022-12-01T16:00:35.448Z,0.10
2022-12-01T16:03:02.281Z,0.10
2022-12-01T16:05:30.065Z,0.10
2022-12-01T16:08:13.513Z,0.22
2022-12-01T16:10:40.291Z,0.15
2022-12-01T16:13:25.014Z,0.20
2022-12-01T16:15:51.608Z,0.03
2022-12-01T16:18:26.295Z,0.03
2022-12-01T16:20:52.744Z,0.20
2022-12-01T16:23:24.617Z,0.15
2022-12-01T16:25:50.905Z,0.05
2022-12-01T16:28:23.142Z,0.20
2022-12-01T16:33:23.253Z,0.20
2022-12-01T16:35:49.946Z,0.10
2022-12-01T16:38:23.878Z,0.10
2022-12-01T16:40:51.441Z,0.20
2022-12-01T16:43:19.146Z,0.00
2022-12-01T16:45:46.215Z,0.10
2022-12-01T16:48:12.748Z,0.20
2022-12-01T16:50:39.607Z,0.20
2022-12-01T16:53:05.957Z,0.20
2022-12-01T16:55:37.326Z,0.38
2022-12-01T16:58:03.639Z,0.10
2022-12-01T17:00:29.964Z,0.10
2022-12-01T17:02:56.904Z,0.20
2022-12-01T17:05:23.271Z,0.30
2022-12-01T17:07:49.634Z,0.15
2022-12-01T17:10:16.003Z,0.08
2022-12-01T17:12:42.315Z,0.20
2022-12-01T17:15:09.958Z,0.20
2022-12-01T17:17:36.483Z,0.30
2022-12-01T17:20:03.356Z,0.20
2022-12-01T17:22:29.735Z,0.10
2022-12-01T17:24:56.055Z,0.10
2022-12-01T17:27:27.569Z,0.10
2022-12-01T17:29:54.157Z,0.00
2022-12-01T17:32:20.582Z,0.05
2022-12-01T17:34:47.765Z,0.20
2022-12-01T17:37:20.406Z,0.08
2022-12-01T17:39:47.318Z,0.13
2022-12-01T17:42:13.608Z,0.10
2022-12-01T17:44:39.832Z,0.20
2022-12-01T17:47:06.054Z,0.40
2022-12-01T17:49:32.321Z,0.30
2022-12-01T17:51:58.583Z,0.10
2022-12-01T17:54:24.909Z,0.10
2022-12-01T17:56:51.286Z,0.10
2022-12-01T17:59:17.577Z,0.10
2022-12-01T18:01:44.057Z,0.00
2022-12-01T18:04:10.416Z,0.15
2022-12-01T18:06:36.727Z,0.20
2022-12-01T18:09:03.027Z,0.10
2022-12-01T18:11:29.260Z,0.15
2022-12-01T18:13:55.570Z,0.10
2022-12-01T18:16:23.491Z,0.08
2022-12-01T18:18:50.062Z,0.10
2022-12-01T18:21:17.446Z,0.20
2022-12-01T18:23:50.782Z,0.10
2022-12-01T18:26:17.811Z,0.00
2022-12-01T18:28:44.147Z,0.30
2022-12-01T18:31:11.958Z,0.20
2022-12-01T18:33:40.149Z,0.08
2022-12-01T18:36:11.357Z,0.03
2022-12-01T18:38:38.665Z,0.10
2022-12-01T18:41:04.947Z,0.00
2022-12-01T18:43:32.012Z,0.32
2022-12-01T18:45:58.760Z,0.10
2022-12-01T18:48:25.090Z,0.10
2022-12-01T18:50:56.414Z,0.10
2022-12-01T18:53:25.473Z,0.20
2022-12-01T18:55:51.819Z,0.20
2022-12-01T18:58:18.184Z,0.10
2022-12-01T19:00:44.562Z,0.10
2022-12-01T19:03:10.920Z,0.03
2022-12-01T19:05:38.097Z,0.10
2022-12-01T19:08:04.484Z,0.00
2022-12-01T19:10:30.788Z,0.00
2022-12-01T19:12:56.998Z,0.13
2022-12-01T19:15:26.263Z,0.10
2022-12-01T19:17:52.553Z,0.10
2022-12-01T19:20:18.851Z,0.13
2022-12-01T19:22:45.178Z,0.10
2022-12-01T19:25:13.212Z,0.00
2022-12-01T19:27:39.742Z,0.10
2022-12-01T19:30:06.313Z,0.10
2022-12-01T19:32:33.429Z,0.15
2022-12-01T19:34:59.676Z,0.20
2022-12-01T19:37:26.193Z,0.20
2022-12-01T19:39:52.590Z,0.10
2022-12-01T19:42:18.957Z,0.17
2022-12-01T19:44:45.287Z,0.10
2022-12-01T19:47:11.565Z,0.10
2022-12-01T19:49:37.832Z,0.10
2022-12-01T19:52:06.186Z,0.10
2022-12-01T19:54:34.620Z,0.10
2022-12-01T19:57:00.952Z,0.08
2022-12-01T19:59:27.214Z,0.17
2022-12-01T20:01:53.578Z,0.20
2022-12-01T20:04:19.917Z,0.20
2022-12-01T20:06:46.196Z,0.00
2022-12-01T20:09:12.456Z,0.13
2022-12-01T20:11:38.718Z,0.10
2022-12-01T20:14:07.426Z,0.08
2022-12-01T20:16:33.855Z,0.20
2022-12-01T20:19:01.488Z,0.15
2022-12-01T20:21:29.073Z,0.10
2022-12-01T20:23:57.960Z,0.10
2022-12-01T20:26:30.250Z,0.20
2022-12-01T20:28:59.458Z,0.10
2022-12-01T20:31:27.193Z,0.10
2022-12-01T20:33:55.269Z,0.00
2022-12-01T20:36:21.759Z,0.05
2022-12-01T20:38:48.077Z,0.10
2022-12-01T20:41:14.690Z,0.20
2022-12-01T20:43:41.052Z,0.20
2022-12-01T20:46:07.486Z,0.30
2022-12-01T20:48:33.997Z,0.30
2022-12-01T20:51:01.130Z,0.20
2022-12-01T20:53:27.712Z,0.13
2022-12-01T20:55:54.115Z,0.10
2022-12-01T20:58:20.429Z,0.10
2022-12-01T21:00:46.818Z,0.20
2022-12-01T21:03:13.634Z,0.13
2022-12-01T21:05:41.161Z,0.28
2022-12-01T21:08:08.541Z,0.30
2022-12-01T21:10:36.490Z,0.20
2022-12-01T21:13:30.643Z,0.40
2022-12-01T21:16:03.459Z,0.20
2022-12-01T21:18:37.385Z,0.20
2022-12-01T21:23:30.239Z,0.30
2022-12-01T21:25:57.007Z,0.20
2022-12-01T21:28:25.471Z,0.17
2022-12-01T21:31:18.247Z,0.20
2022-12-01T21:33:44.608Z,0.20
2022-12-01T21:36:15.635Z,0.30
2022-12-01T21:38:43.223Z,0.30
2022-12-01T21:41:16.045Z,0.22
2022-12-01T21:43:42.370Z,0.10
2022-12-01T21:46:14.231Z,0.20
2022-12-01T21:48:40.768Z,0.45
2022-12-01T21:51:11.985Z,0.40
2022-12-01T21:53:38.753Z,0.40
2022-12-01T21:56:05.150Z,0.20
2022-12-01T21:58:34.456Z,0.20
2022-12-01T22:01:01.164Z,0.20
2022-12-01T22:03:32.351Z,0.20
2022-12-01T22:06:29.295Z,0.30
2022-12-01T22:08:48.310Z,0.30
2022-12-01T22:11:18.602Z,0.40
2022-12-01T22:13:46.417Z,0.30
2022-12-01T22:16:26.065Z,0.30
2022-12-01T22:18:53.755Z,0.30
2022-12-01T22:21:23.209Z,0.30
2022-12-01T22:23:50.257Z,0.20
2022-12-01T22:26:19.478Z,0.40
2022-12-01T22:28:46.547Z,0.30
2022-12-01T22:31:16.186Z,0.30
2022-12-01T22:33:42.497Z,0.40
2022-12-01T22:36:21.770Z,0.30
2022-12-01T22:38:48.122Z,0.30
2022-12-01T22:41:15.671Z,0.30
2022-12-01T22:43:43.966Z,0.25
2022-12-01T22:46:15.009Z,0.22
2022-12-01T22:48:41.346Z,0.40
2022-12-01T22:51:16.857Z,0.20
2022-12-01T22:53:44.320Z,0.30
2022-12-01T22:56:36.910Z,0.20
2022-12-01T22:59:10.485Z,0.17
2022-12-01T23:01:41.483Z,0.20
2022-12-01T23:04:34.337Z,0.25
2022-12-01T23:07:02.690Z,0.30
2022-12-01T23:09:32.130Z,0.20
2022-12-01T23:12:00.452Z,0.15
2022-12-01T23:14:26.997Z,0.20
2022-12-01T23:17:00.486Z,0.22
2022-12-01T23:19:26.772Z,0.30
2022-12-01T23:21:53.437Z,0.30
2022-12-01T23:24:19.722Z,0.20
2022-12-01T23:26:46.242Z,0.20
2022-12-01T23:29:12.696Z,0.20
2022-12-01T23:31:39.068Z,0.20
2022-12-01T23:34:15.834Z,0.32
2022-12-01T23:36:42.884Z,0.20
2022-12-01T23:39:13.128Z,0.20
2022-12-01T23:41:41.897Z,0.20
2022-12-01T23:44:24.703Z,0.20
2022-12-01T23:46:52.825Z,0.20
2022-12-01T23:49:20.352Z,0.22
2022-12-01T23:51:47.863Z,0.20
2022-12-01T23:54:16.469Z,0.20
2022-12-01T23:56:43.505Z,0.30
2022-12-01T23:59:12.349Z,0.22
